Terminal Aerodrome Forecast
Issued by NWS Amarillo, TX

Home | Current Version | Previous Version | Text Only | Print | Product List | Glossary On
Versions: 1 2 3 4 5 6 7 8 9 10 11 12 13 14 15
965
FTUS44 KAMA 300537
TAFAMA
TAF
KAMA 300537Z 3006/0106 32025G35KT 1SM -SN BLSN BR OVC007
      TEMPO 3011/3015 32030G40KT
     FM301500 31030G40KT P6SM -SN OVC015
     FM302000 32030G40KT P6SM SKC
     FM010100 31025KT P6SM SKC=

USA.gov is the U.S. government's official web portal to all federal, state and local government web resources and services.